Porter, Oklahoma
Current Conditions -  °F | °C
As of 2:53 AM on Friday 24 Oct 2014 (Local Time) from KMKO Reporting Station
Clear Clear  
Wind Chill: 55°   Ceiling: Unl
Heat Index: 55°   Visibility: 10mi
Dew Point: 52°   Wind: 5mph
Humidity: 89%   Direction: 160°SSE
Pressure: 30.14"   Gusts: NA
Location:  35.87°N, 95.52°W
Report Text: KMKO 240753Z AUTO 16004KT 10SM CLR 13/11 A3014 RMK AO2 SLP203 T01280111
Loading
Personal Weather Stations






























Interactive Weather Map
Tropical Storm Tracking
New forecast layout! Learn more

10-Day Weather Forecast

Advertisements
Track Severe Weather on mobile